Coleman, Texas
Current Conditions -  °F | °C
As of 6:15 PM on Monday 20 Oct 2014 (Local Time) from KCOM Reporting Station
Clear Clear  
Wind Chill: 78°   Ceiling: Unl
Heat Index: 79°   Visibility: 10mi
Dew Point: 57°   Wind: 7mph
Humidity: 48%   Direction: 100°E
Pressure: 30.03"   Gusts: NA
Location:  31.83°N, 99.43°W
Report Text: KCOM 202315Z AUTO 10006KT 10SM CLR 26/14 A3003 RMK AO2 T02550137
Loading
Personal Weather Stations






























Interactive Weather Map New forecast layout! Learn more

10-Day Weather Forecast

Advertisements
Track Severe Weather on mobile